sensor_id;sensor_type;location;lat;lon;timestamp;temperature;humidity
78297;DHT22;67555;47.660;19.622;2023-08-30T00:00:55;18.10;91.90
78297;DHT22;67555;47.660;19.622;2023-08-30T00:03:21;18.10;91.90
78297;DHT22;67555;47.660;19.622;2023-08-30T00:05:46;18.20;91.70
78297;DHT22;67555;47.660;19.622;2023-08-30T00:08:12;18.20;91.50
78297;DHT22;67555;47.660;19.622;2023-08-30T00:10:45;18.20;91.50
78297;DHT22;67555;47.660;19.622;2023-08-30T00:13:11;18.30;91.40
78297;DHT22;67555;47.660;19.622;2023-08-30T00:15:37;18.40;91.30
78297;DHT22;67555;47.660;19.622;2023-08-30T00:18:02;18.50;91.10
78297;DHT22;67555;47.660;19.622;2023-08-30T00:20:29;18.40;91.20
78297;DHT22;67555;47.660;19.622;2023-08-30T00:22:55;18.40;91.40
78297;DHT22;67555;47.660;19.622;2023-08-30T00:25:20;18.40;91.40
78297;DHT22;67555;47.660;19.622;2023-08-30T00:27:46;18.30;91.50
78297;DHT22;67555;47.660;19.622;2023-08-30T00:30:12;18.40;91.40
78297;DHT22;67555;47.660;19.622;2023-08-30T00:32:38;18.40;91.20
78297;DHT22;67555;47.660;19.622;2023-08-30T00:35:04;18.50;91.10
78297;DHT22;67555;47.660;19.622;2023-08-30T00:37:30;18.50;91.00
78297;DHT22;67555;47.660;19.622;2023-08-30T00:39:55;18.60;90.90
78297;DHT22;67555;47.660;19.622;2023-08-30T00:42:21;18.60;90.80
78297;DHT22;67555;47.660;19.622;2023-08-30T00:44:47;18.60;90.90
78297;DHT22;67555;47.660;19.622;2023-08-30T00:47:13;18.60;90.80
78297;DHT22;67555;47.660;19.622;2023-08-30T00:49:40;18.60;90.70
78297;DHT22;67555;47.660;19.622;2023-08-30T00:52:08;18.50;90.70
78297;DHT22;67555;47.660;19.622;2023-08-30T00:54:34;18.50;90.70
78297;DHT22;67555;47.660;19.622;2023-08-30T00:57:01;18.50;90.70
78297;DHT22;67555;47.660;19.622;2023-08-30T00:59:27;18.50;90.60
78297;DHT22;67555;47.660;19.622;2023-08-30T01:01:55;18.60;90.50
78297;DHT22;67555;47.660;19.622;2023-08-30T01:04:21;18.60;90.50
78297;DHT22;67555;47.660;19.622;2023-08-30T01:06:48;18.60;90.50
78297;DHT22;67555;47.660;19.622;2023-08-30T01:09:15;18.60;90.40
78297;DHT22;67555;47.660;19.622;2023-08-30T01:14:39;18.70;90.30
78297;DHT22;67555;47.660;19.622;2023-08-30T01:17:07;18.60;90.20
78297;DHT22;67555;47.660;19.622;2023-08-30T01:27:48;18.40;90.80
78297;DHT22;67555;47.660;19.622;2023-08-30T01:30:16;18.40;90.70
78297;DHT22;67555;47.660;19.622;2023-08-30T01:32:43;18.50;90.50
78297;DHT22;67555;47.660;19.622;2023-08-30T01:35:10;18.50;90.30
78297;DHT22;67555;47.660;19.622;2023-08-30T01:37:36;18.50;90.30
78297;DHT22;67555;47.660;19.622;2023-08-30T01:40:04;18.60;90.30
78297;DHT22;67555;47.660;19.622;2023-08-30T01:42:33;18.60;90.10
78297;DHT22;67555;47.660;19.622;2023-08-30T01:45:01;18.60;90.00
78297;DHT22;67555;47.660;19.622;2023-08-30T01:47:29;18.70;89.80
78297;DHT22;67555;47.660;19.622;2023-08-30T01:49:57;18.70;90.00
78297;DHT22;67555;47.660;19.622;2023-08-30T01:52:24;18.60;90.00
78297;DHT22;67555;47.660;19.622;2023-08-30T01:54:51;18.50;90.10
78297;DHT22;67555;47.660;19.622;2023-08-30T01:57:17;18.40;90.20
78297;DHT22;67555;47.660;19.622;2023-08-30T01:59:43;18.40;90.40
78297;DHT22;67555;47.660;19.622;2023-08-30T02:02:09;18.40;90.40
78297;DHT22;67555;47.660;19.622;2023-08-30T02:04:35;18.40;90.10
78297;DHT22;67555;47.660;19.622;2023-08-30T02:07:03;18.30;90.20
78297;DHT22;67555;47.660;19.622;2023-08-30T02:12:15;18.20;90.30
78297;DHT22;67555;47.660;19.622;2023-08-30T02:14:46;18.20;90.40
78297;DHT22;67555;47.660;19.622;2023-08-30T02:17:14;18.10;90.30
78297;DHT22;67555;47.660;19.622;2023-08-30T02:19:42;18.10;90.30
78297;DHT22;67555;47.660;19.622;2023-08-30T02:22:08;18.10;90.30
78297;DHT22;67555;47.660;19.622;2023-08-30T02:24:34;18.00;90.30
78297;DHT22;67555;47.660;19.622;2023-08-30T02:26:59;17.90;90.10
78297;DHT22;67555;47.660;19.622;2023-08-30T02:29:25;17.80;90.30
78297;DHT22;67555;47.660;19.622;2023-08-30T02:31:51;17.60;90.50
78297;DHT22;67555;47.660;19.622;2023-08-30T02:34:17;17.60;90.60
78297;DHT22;67555;47.660;19.622;2023-08-30T02:36:42;17.60;90.70
78297;DHT22;67555;47.660;19.622;2023-08-30T02:39:08;17.60;90.40
78297;DHT22;67555;47.660;19.622;2023-08-30T02:41:34;17.50;90.30
78297;DHT22;67555;47.660;19.622;2023-08-30T02:44:00;17.50;90.40
78297;DHT22;67555;47.660;19.622;2023-08-30T02:46:26;17.50;90.40
78297;DHT22;67555;47.660;19.622;2023-08-30T02:48:51;17.50;90.40
78297;DHT22;67555;47.660;19.622;2023-08-30T02:51:17;17.50;90.30
78297;DHT22;67555;47.660;19.622;2023-08-30T02:53:43;17.60;90.10
78297;DHT22;67555;47.660;19.622;2023-08-30T02:56:09;17.50;90.00
78297;DHT22;67555;47.660;19.622;2023-08-30T02:58:36;17.50;89.90
78297;DHT22;67555;47.660;19.622;2023-08-30T03:01:02;17.50;89.70
78297;DHT22;67555;47.660;19.622;2023-08-30T03:03:29;17.30;89.70
78297;DHT22;67555;47.660;19.622;2023-08-30T03:05:54;17.10;89.90
78297;DHT22;67555;47.660;19.622;2023-08-30T03:08:20;17.00;90.20
78297;DHT22;67555;47.660;19.622;2023-08-30T03:10:46;16.90;90.50
78297;DHT22;67555;47.660;19.622;2023-08-30T03:13:12;16.80;90.60
78297;DHT22;67555;47.660;19.622;2023-08-30T03:15:38;16.70;90.80
78297;DHT22;67555;47.660;19.622;2023-08-30T03:18:04;16.70;90.90
78297;DHT22;67555;47.660;19.622;2023-08-30T03:20:29;16.80;90.90
78297;DHT22;67555;47.660;19.622;2023-08-30T03:22:58;16.80;90.70
78297;DHT22;67555;47.660;19.622;2023-08-30T03:25:24;16.80;90.70
78297;DHT22;67555;47.660;19.622;2023-08-30T03:27:50;16.80;90.70
78297;DHT22;67555;47.660;19.622;2023-08-30T03:30:16;16.90;90.60
78297;DHT22;67555;47.660;19.622;2023-08-30T03:32:42;16.90;90.50
78297;DHT22;67555;47.660;19.622;2023-08-30T03:35:08;17.00;90.40
78297;DHT22;67555;47.660;19.622;2023-08-30T03:37:34;17.00;90.00
78297;DHT22;67555;47.660;19.622;2023-08-30T03:39:59;17.00;89.90
78297;DHT22;67555;47.660;19.622;2023-08-30T03:42:25;16.90;90.00
78297;DHT22;67555;47.660;19.622;2023-08-30T03:44:51;16.90;90.20
78297;DHT22;67555;47.660;19.622;2023-08-30T03:47:17;16.90;90.30
78297;DHT22;67555;47.660;19.622;2023-08-30T03:49:43;16.90;90.30
78297;DHT22;67555;47.660;19.622;2023-08-30T03:52:09;16.90;90.20
78297;DHT22;67555;47.660;19.622;2023-08-30T03:54:35;16.90;90.10
78297;DHT22;67555;47.660;19.622;2023-08-30T03:57:01;16.90;90.30
78297;DHT22;67555;47.660;19.622;2023-08-30T03:59:28;16.90;90.30
78297;DHT22;67555;47.660;19.622;2023-08-30T04:01:54;16.90;90.50
78297;DHT22;67555;47.660;19.622;2023-08-30T04:04:19;16.90;90.50
78297;DHT22;67555;47.660;19.622;2023-08-30T04:06:45;16.90;90.50
78297;DHT22;67555;47.660;19.622;2023-08-30T04:09:11;16.90;90.40
78297;DHT22;67555;47.660;19.622;2023-08-30T04:11:37;16.80;90.30
78297;DHT22;67555;47.660;19.622;2023-08-30T04:14:02;16.80;90.40
78297;DHT22;67555;47.660;19.622;2023-08-30T04:16:28;16.80;90.50
78297;DHT22;67555;47.660;19.622;2023-08-30T04:18:54;16.70;90.50
78297;DHT22;67555;47.660;19.622;2023-08-30T04:21:20;16.70;90.50
78297;DHT22;67555;47.660;19.622;2023-08-30T04:23:46;16.70;90.60
78297;DHT22;67555;47.660;19.622;2023-08-30T04:26:11;16.80;90.50
78297;DHT22;67555;47.660;19.622;2023-08-30T04:28:37;16.80;90.40
78297;DHT22;67555;47.660;19.622;2023-08-30T04:31:03;16.90;90.30
78297;DHT22;67555;47.660;19.622;2023-08-30T04:33:29;16.90;90.20
78297;DHT22;67555;47.660;19.622;2023-08-30T04:35:55;17.00;90.00
78297;DHT22;67555;47.660;19.622;2023-08-30T04:38:21;17.00;90.00
78297;DHT22;67555;47.660;19.622;2023-08-30T04:40:47;17.00;90.00
78297;DHT22;67555;47.660;19.622;2023-08-30T04:43:14;17.00;89.90
78297;DHT22;67555;47.660;19.622;2023-08-30T04:45:40;17.00;89.90
78297;DHT22;67555;47.660;19.622;2023-08-30T04:48:06;17.00;89.90
78297;DHT22;67555;47.660;19.622;2023-08-30T04:50:31;17.00;89.90
78297;DHT22;67555;47.660;19.622;2023-08-30T04:52:57;17.00;89.90
78297;DHT22;67555;47.660;19.622;2023-08-30T04:55:29;17.00;90.00
78297;DHT22;67555;47.660;19.622;2023-08-30T04:57:55;17.00;90.00
78297;DHT22;67555;47.660;19.622;2023-08-30T05:00:21;17.10;90.00
78297;DHT22;67555;47.660;19.622;2023-08-30T05:02:47;17.20;89.90
78297;DHT22;67555;47.660;19.622;2023-08-30T05:05:14;17.20;89.80
78297;DHT22;67555;47.660;19.622;2023-08-30T05:07:40;17.20;89.70
78297;DHT22;67555;47.660;19.622;2023-08-30T05:10:06;17.30;89.70
78297;DHT22;67555;47.660;19.622;2023-08-30T05:12:35;17.30;89.70
78297;DHT22;67555;47.660;19.622;2023-08-30T05:15:01;17.40;89.70
78297;DHT22;67555;47.660;19.622;2023-08-30T05:17:27;17.40;89.70
78297;DHT22;67555;47.660;19.622;2023-08-30T05:19:54;17.50;89.60
78297;DHT22;67555;47.660;19.622;2023-08-30T05:22:20;17.50;89.50
78297;DHT22;67555;47.660;19.622;2023-08-30T05:24:45;17.40;89.50
78297;DHT22;67555;47.660;19.622;2023-08-30T05:27:13;17.50;89.50
78297;DHT22;67555;47.660;19.622;2023-08-30T05:29:40;17.50;89.50
78297;DHT22;67555;47.660;19.622;2023-08-30T05:32:06;17.60;89.40
78297;DHT22;67555;47.660;19.622;2023-08-30T05:34:31;17.70;89.20
78297;DHT22;67555;47.660;19.622;2023-08-30T05:36:57;17.80;89.00
78297;DHT22;67555;47.660;19.622;2023-08-30T05:39:23;17.80;88.80
78297;DHT22;67555;47.660;19.622;2023-08-30T05:41:48;18.00;88.70
78297;DHT22;67555;47.660;19.622;2023-08-30T05:44:14;18.10;88.50
78297;DHT22;67555;47.660;19.622;2023-08-30T05:46:40;18.20;88.00
78297;DHT22;67555;47.660;19.622;2023-08-30T05:49:06;18.20;87.90
78297;DHT22;67555;47.660;19.622;2023-08-30T05:51:31;18.20;87.80
78297;DHT22;67555;47.660;19.622;2023-08-30T05:53:57;18.20;87.70
78297;DHT22;67555;47.660;19.622;2023-08-30T05:56:23;18.20;87.50
78297;DHT22;67555;47.660;19.622;2023-08-30T05:58:48;18.20;87.50
78297;DHT22;67555;47.660;19.622;2023-08-30T06:01:18;18.30;87.40
78297;DHT22;67555;47.660;19.622;2023-08-30T06:03:44;18.40;87.20
78297;DHT22;67555;47.660;19.622;2023-08-30T06:06:11;18.30;87.00
78297;DHT22;67555;47.660;19.622;2023-08-30T06:08:37;18.30;86.70
78297;DHT22;67555;47.660;19.622;2023-08-30T06:11:02;18.30;86.50
78297;DHT22;67555;47.660;19.622;2023-08-30T06:13:28;18.30;86.60
78297;DHT22;67555;47.660;19.622;2023-08-30T06:15:54;18.40;86.50
78297;DHT22;67555;47.660;19.622;2023-08-30T06:18:20;18.40;86.50
78297;DHT22;67555;47.660;19.622;2023-08-30T06:20:46;18.50;86.50
78297;DHT22;67555;47.660;19.622;2023-08-30T06:23:12;18.60;86.40
78297;DHT22;67555;47.660;19.622;2023-08-30T06:25:38;18.60;86.10
78297;DHT22;67555;47.660;19.622;2023-08-30T06:28:04;18.50;85.90
78297;DHT22;67555;47.660;19.622;2023-08-30T06:30:30;18.60;86.10
78297;DHT22;67555;47.660;19.622;2023-08-30T06:32:56;18.60;85.90
78297;DHT22;67555;47.660;19.622;2023-08-30T06:35:23;18.60;85.70
78297;DHT22;67555;47.660;19.622;2023-08-30T06:37:49;18.60;85.90
78297;DHT22;67555;47.660;19.622;2023-08-30T06:40:14;18.70;85.90
78297;DHT22;67555;47.660;19.622;2023-08-30T06:42:40;18.90;85.70
78297;DHT22;67555;47.660;19.622;2023-08-30T06:45:06;19.10;85.40
78297;DHT22;67555;47.660;19.622;2023-08-30T06:47:32;19.20;85.00
78297;DHT22;67555;47.660;19.622;2023-08-30T06:50:00;19.20;84.70
78297;DHT22;67555;47.660;19.622;2023-08-30T06:52:25;19.30;84.40
78297;DHT22;67555;47.660;19.622;2023-08-30T06:54:51;19.30;84.30
78297;DHT22;67555;47.660;19.622;2023-08-30T06:57:17;19.40;84.20
78297;DHT22;67555;47.660;19.622;2023-08-30T06:59:43;19.40;84.00
78297;DHT22;67555;47.660;19.622;2023-08-30T07:02:08;19.30;84.20
78297;DHT22;67555;47.660;19.622;2023-08-30T07:04:34;19.30;84.50
78297;DHT22;67555;47.660;19.622;2023-08-30T07:07:00;19.40;84.60
78297;DHT22;67555;47.660;19.622;2023-08-30T07:09:25;19.40;84.60
78297;DHT22;67555;47.660;19.622;2023-08-30T07:11:57;19.40;84.40
78297;DHT22;67555;47.660;19.622;2023-08-30T07:14:23;19.50;84.00
78297;DHT22;67555;47.660;19.622;2023-08-30T07:16:48;19.50;84.20
78297;DHT22;67555;47.660;19.622;2023-08-30T07:19:16;19.50;84.10
78297;DHT22;67555;47.660;19.622;2023-08-30T07:21:42;19.70;83.90
78297;DHT22;67555;47.660;19.622;2023-08-30T07:24:08;19.70;83.50
78297;DHT22;67555;47.660;19.622;2023-08-30T07:26:34;19.70;83.40
78297;DHT22;67555;47.660;19.622;2023-08-30T07:29:00;19.70;83.40
78297;DHT22;67555;47.660;19.622;2023-08-30T07:31:26;19.80;83.30
78297;DHT22;67555;47.660;19.622;2023-08-30T07:33:52;19.90;83.20
78297;DHT22;67555;47.660;19.622;2023-08-30T07:36:17;20.00;83.10
78297;DHT22;67555;47.660;19.622;2023-08-30T07:38:43;20.00;82.80
78297;DHT22;67555;47.660;19.622;2023-08-30T07:41:09;20.00;82.20
78297;DHT22;67555;47.660;19.622;2023-08-30T07:43:35;20.00;82.20
78297;DHT22;67555;47.660;19.622;2023-08-30T07:46:01;20.00;82.10
78297;DHT22;67555;47.660;19.622;2023-08-30T07:48:27;20.10;82.50
78297;DHT22;67555;47.660;19.622;2023-08-30T07:50:53;20.20;82.40
78297;DHT22;67555;47.660;19.622;2023-08-30T07:53:19;20.30;82.40
78297;DHT22;67555;47.660;19.622;2023-08-30T07:55:49;20.40;82.20
78297;DHT22;67555;47.660;19.622;2023-08-30T07:58:16;20.60;81.60
78297;DHT22;67555;47.660;19.622;2023-08-30T08:00:42;20.80;81.30
78297;DHT22;67555;47.660;19.622;2023-08-30T08:03:08;21.00;81.00
78297;DHT22;67555;47.660;19.622;2023-08-30T08:05:35;21.10;80.70
78297;DHT22;67555;47.660;19.622;2023-08-30T08:08:01;21.10;80.30
78297;DHT22;67555;47.660;19.622;2023-08-30T08:10:34;21.10;80.20
78297;DHT22;67555;47.660;19.622;2023-08-30T08:13:00;21.00;80.50
78297;DHT22;67555;47.660;19.622;2023-08-30T08:15:27;21.00;80.80
78297;DHT22;67555;47.660;19.622;2023-08-30T08:17:54;21.10;80.80
78297;DHT22;67555;47.660;19.622;2023-08-30T08:20:20;21.40;80.40
78297;DHT22;67555;47.660;19.622;2023-08-30T08:22:45;21.70;80.00
78297;DHT22;67555;47.660;19.622;2023-08-30T08:25:13;22.00;78.80
78297;DHT22;67555;47.660;19.622;2023-08-30T08:27:39;22.20;78.30
78297;DHT22;67555;47.660;19.622;2023-08-30T08:30:05;22.50;78.10
78297;DHT22;67555;47.660;19.622;2023-08-30T08:32:31;22.50;77.50
78297;DHT22;67555;47.660;19.622;2023-08-30T08:35:01;22.40;77.60
78297;DHT22;67555;47.660;19.622;2023-08-30T08:37:31;22.30;77.00
78297;DHT22;67555;47.660;19.622;2023-08-30T08:39:57;22.10;77.50
78297;DHT22;67555;47.660;19.622;2023-08-30T08:42:24;22.20;78.00
78297;DHT22;67555;47.660;19.622;2023-08-30T08:44:54;22.60;77.90
78297;DHT22;67555;47.660;19.622;2023-08-30T08:47:21;23.00;77.30
78297;DHT22;67555;47.660;19.622;2023-08-30T08:49:49;23.50;76.70
78297;DHT22;67555;47.660;19.622;2023-08-30T08:52:16;23.80;76.00
78297;DHT22;67555;47.660;19.622;2023-08-30T08:54:43;24.10;75.50
78297;DHT22;67555;47.660;19.622;2023-08-30T08:57:09;24.20;75.20
78297;DHT22;67555;47.660;19.622;2023-08-30T08:59:35;24.40;75.00
78297;DHT22;67555;47.660;19.622;2023-08-30T09:02:01;24.40;74.80
78297;DHT22;67555;47.660;19.622;2023-08-30T09:04:30;24.50;73.80
78297;DHT22;67555;47.660;19.622;2023-08-30T09:06:56;24.50;73.10
78297;DHT22;67555;47.660;19.622;2023-08-30T09:09:23;24.40;72.50
78297;DHT22;67555;47.660;19.622;2023-08-30T09:11:49;24.20;72.60
78297;DHT22;67555;47.660;19.622;2023-08-30T09:14:17;24.00;72.80
78297;DHT22;67555;47.660;19.622;2023-08-30T09:16:43;24.20;73.40
78297;DHT22;67555;47.660;19.622;2023-08-30T09:19:20;24.40;72.60
78297;DHT22;67555;47.660;19.622;2023-08-30T09:21:56;24.40;71.00
78297;DHT22;67555;47.660;19.622;2023-08-30T09:24:22;24.50;71.50
78297;DHT22;67555;47.660;19.622;2023-08-30T09:26:50;24.80;71.50
78297;DHT22;67555;47.660;19.622;2023-08-30T09:29:17;25.10;71.20
78297;DHT22;67555;47.660;19.622;2023-08-30T09:31:43;25.40;70.90
78297;DHT22;67555;47.660;19.622;2023-08-30T09:34:09;25.50;70.70
78297;DHT22;67555;47.660;19.622;2023-08-30T09:36:42;25.50;70.60
78297;DHT22;67555;47.660;19.622;2023-08-30T09:39:12;25.50;70.80
78297;DHT22;67555;47.660;19.622;2023-08-30T09:41:49;25.40;70.50
78297;DHT22;67555;47.660;19.622;2023-08-30T09:44:17;25.30;70.70
78297;DHT22;67555;47.660;19.622;2023-08-30T09:46:44;25.20;70.90
78297;DHT22;67555;47.660;19.622;2023-08-30T09:49:13;25.20;71.20
78297;DHT22;67555;47.660;19.622;2023-08-30T09:51:41;25.30;71.10
78297;DHT22;67555;47.660;19.622;2023-08-30T09:54:14;25.40;70.90
78297;DHT22;67555;47.660;19.622;2023-08-30T09:56:41;25.50;70.60
78297;DHT22;67555;47.660;19.622;2023-08-30T09:59:10;25.40;66.90
78297;DHT22;67555;47.660;19.622;2023-08-30T10:01:37;25.20;66.80
78297;DHT22;67555;47.660;19.622;2023-08-30T10:04:03;25.00;66.90
78297;DHT22;67555;47.660;19.622;2023-08-30T10:06:30;25.00;66.50
78297;DHT22;67555;47.660;19.622;2023-08-30T10:08:56;25.00;67.20
78297;DHT22;67555;47.660;19.622;2023-08-30T10:11:24;25.00;65.50
78297;DHT22;67555;47.660;19.622;2023-08-30T10:13:51;25.00;66.40
78297;DHT22;67555;47.660;19.622;2023-08-30T10:16:23;25.00;67.00
78297;DHT22;67555;47.660;19.622;2023-08-30T10:18:55;25.20;65.90
78297;DHT22;67555;47.660;19.622;2023-08-30T10:21:26;25.30;66.60
78297;DHT22;67555;47.660;19.622;2023-08-30T10:23:54;25.40;66.60
78297;DHT22;67555;47.660;19.622;2023-08-30T10:26:26;25.60;65.30
78297;DHT22;67555;47.660;19.622;2023-08-30T10:28:55;25.50;64.90
78297;DHT22;67555;47.660;19.622;2023-08-30T10:31:22;25.40;65.20
78297;DHT22;67555;47.660;19.622;2023-08-30T10:33:53;25.20;65.30
78297;DHT22;67555;47.660;19.622;2023-08-30T10:36:26;25.10;64.60
78297;DHT22;67555;47.660;19.622;2023-08-30T10:38:55;25.00;64.60
78297;DHT22;67555;47.660;19.622;2023-08-30T10:41:24;24.80;64.90
78297;DHT22;67555;47.660;19.622;2023-08-30T10:43:52;24.80;64.70
78297;DHT22;67555;47.660;19.622;2023-08-30T10:46:33;24.80;63.70
78297;DHT22;67555;47.660;19.622;2023-08-30T10:49:12;24.70;64.60
78297;DHT22;67555;47.660;19.622;2023-08-30T10:51:40;24.70;64.00
78297;DHT22;67555;47.660;19.622;2023-08-30T10:54:15;24.80;64.60
78297;DHT22;67555;47.660;19.622;2023-08-30T10:56:48;25.00;64.80
78297;DHT22;67555;47.660;19.622;2023-08-30T10:59:21;25.00;64.80
78297;DHT22;67555;47.660;19.622;2023-08-30T11:01:48;25.20;64.30
78297;DHT22;67555;47.660;19.622;2023-08-30T11:04:15;25.10;64.40
78297;DHT22;67555;47.660;19.622;2023-08-30T11:06:43;25.00;63.60
78297;DHT22;67555;47.660;19.622;2023-08-30T11:09:10;25.00;63.90
78297;DHT22;67555;47.660;19.622;2023-08-30T11:11:37;25.00;63.90
78297;DHT22;67555;47.660;19.622;2023-08-30T11:14:09;25.00;64.30
78297;DHT22;67555;47.660;19.622;2023-08-30T11:16:35;25.00;64.40
78297;DHT22;67555;47.660;19.622;2023-08-30T11:19:05;25.20;64.40
78297;DHT22;67555;47.660;19.622;2023-08-30T11:21:33;25.30;64.20
78297;DHT22;67555;47.660;19.622;2023-08-30T11:23:59;25.40;64.10
78297;DHT22;67555;47.660;19.622;2023-08-30T11:26:25;25.40;63.40
78297;DHT22;67555;47.660;19.622;2023-08-30T11:28:51;25.30;62.30
78297;DHT22;67555;47.660;19.622;2023-08-30T11:31:25;25.00;62.20
78297;DHT22;67555;47.660;19.622;2023-08-30T11:33:54;24.80;62.10
78297;DHT22;67555;47.660;19.622;2023-08-30T11:36:23;24.60;62.60
78297;DHT22;67555;47.660;19.622;2023-08-30T11:38:52;24.40;62.90
78297;DHT22;67555;47.660;19.622;2023-08-30T11:41:20;24.40;62.50
78297;DHT22;67555;47.660;19.622;2023-08-30T11:43:47;24.20;62.10
78297;DHT22;67555;47.660;19.622;2023-08-30T11:46:13;24.00;63.40
78297;DHT22;67555;47.660;19.622;2023-08-30T11:48:40;24.10;64.20
78297;DHT22;67555;47.660;19.622;2023-08-30T11:51:07;24.20;63.30
78297;DHT22;67555;47.660;19.622;2023-08-30T11:53:34;24.10;63.70
78297;DHT22;67555;47.660;19.622;2023-08-30T11:56:01;24.20;63.70
78297;DHT22;67555;47.660;19.622;2023-08-30T11:58:27;24.20;64.00
78297;DHT22;67555;47.660;19.622;2023-08-30T12:00:53;24.40;63.70
78297;DHT22;67555;47.660;19.622;2023-08-30T12:03:22;24.60;63.50
78297;DHT22;67555;47.660;19.622;2023-08-30T12:05:49;24.70;63.10
78297;DHT22;67555;47.660;19.622;2023-08-30T12:08:23;24.80;62.40
78297;DHT22;67555;47.660;19.622;2023-08-30T12:10:49;24.80;61.60
78297;DHT22;67555;47.660;19.622;2023-08-30T12:15:48;24.70;61.80
78297;DHT22;67555;47.660;19.622;2023-08-30T12:18:14;24.70;62.00
78297;DHT22;67555;47.660;19.622;2023-08-30T12:20:51;25.00;61.90
78297;DHT22;67555;47.660;19.622;2023-08-30T12:23:25;25.20;60.50
78297;DHT22;67555;47.660;19.622;2023-08-30T12:26:20;25.40;60.70
78297;DHT22;67555;47.660;19.622;2023-08-30T12:28:46;25.70;60.40
78297;DHT22;67555;47.660;19.622;2023-08-30T12:31:11;25.90;60.10
78297;DHT22;67555;47.660;19.622;2023-08-30T12:33:37;26.00;59.10
78297;DHT22;67555;47.660;19.622;2023-08-30T12:36:05;26.20;59.40
78297;DHT22;67555;47.660;19.622;2023-08-30T12:38:31;26.40;57.70
78297;DHT22;67555;47.660;19.622;2023-08-30T12:40:56;26.20;56.80
78297;DHT22;67555;47.660;19.622;2023-08-30T12:43:23;26.10;57.40
78297;DHT22;67555;47.660;19.622;2023-08-30T12:45:49;26.30;57.30
78297;DHT22;67555;47.660;19.622;2023-08-30T12:48:17;26.20;57.40
78297;DHT22;67555;47.660;19.622;2023-08-30T12:50:45;26.40;57.50
78297;DHT22;67555;47.660;19.622;2023-08-30T12:53:11;26.80;56.90
78297;DHT22;67555;47.660;19.622;2023-08-30T12:55:37;27.20;55.60
78297;DHT22;67555;47.660;19.622;2023-08-30T12:58:06;27.10;55.20
78297;DHT22;67555;47.660;19.622;2023-08-30T13:00:32;27.00;54.90
78297;DHT22;67555;47.660;19.622;2023-08-30T13:02:59;26.80;55.70
78297;DHT22;67555;47.660;19.622;2023-08-30T13:05:25;26.90;54.70
78297;DHT22;67555;47.660;19.622;2023-08-30T13:07:52;26.60;55.10
78297;DHT22;67555;47.660;19.622;2023-08-30T13:10:18;26.70;56.00
78297;DHT22;67555;47.660;19.622;2023-08-30T13:12:44;26.70;55.10
78297;DHT22;67555;47.660;19.622;2023-08-30T13:15:10;26.50;55.00
78297;DHT22;67555;47.660;19.622;2023-08-30T13:17:36;26.20;54.70
78297;DHT22;67555;47.660;19.622;2023-08-30T13:20:03;26.10;55.50
78297;DHT22;67555;47.660;19.622;2023-08-30T13:22:29;26.10;55.40
78297;DHT22;67555;47.660;19.622;2023-08-30T13:24:55;26.00;55.30
78297;DHT22;67555;47.660;19.622;2023-08-30T13:27:21;25.80;55.80
78297;DHT22;67555;47.660;19.622;2023-08-30T13:29:46;25.60;55.70
78297;DHT22;67555;47.660;19.622;2023-08-30T13:32:13;25.60;56.10
78297;DHT22;67555;47.660;19.622;2023-08-30T13:34:39;25.60;56.20
78297;DHT22;67555;47.660;19.622;2023-08-30T13:37:05;25.80;56.20
78297;DHT22;67555;47.660;19.622;2023-08-30T13:39:31;26.00;56.20
78297;DHT22;67555;47.660;19.622;2023-08-30T13:42:17;26.00;55.70
78297;DHT22;67555;47.660;19.622;2023-08-30T13:44:43;25.90;55.40
78297;DHT22;67555;47.660;19.622;2023-08-30T13:47:09;26.00;55.90
78297;DHT22;67555;47.660;19.622;2023-08-30T13:49:35;26.00;55.80
78297;DHT22;67555;47.660;19.622;2023-08-30T13:52:02;25.60;55.30
78297;DHT22;67555;47.660;19.622;2023-08-30T13:54:28;25.20;55.60
78297;DHT22;67555;47.660;19.622;2023-08-30T13:56:57;24.90;56.60
78297;DHT22;67555;47.660;19.622;2023-08-30T13:59:23;25.00;57.00
78297;DHT22;67555;47.660;19.622;2023-08-30T14:01:49;25.00;57.20
78297;DHT22;67555;47.660;19.622;2023-08-30T14:04:15;25.00;57.30
78297;DHT22;67555;47.660;19.622;2023-08-30T14:06:41;25.00;57.60
78297;DHT22;67555;47.660;19.622;2023-08-30T14:09:07;24.80;57.70
78297;DHT22;67555;47.660;19.622;2023-08-30T14:11:35;24.60;58.00
78297;DHT22;67555;47.660;19.622;2023-08-30T14:14:04;24.40;58.70
78297;DHT22;67555;47.660;19.622;2023-08-30T14:16:30;24.40;59.10
78297;DHT22;67555;47.660;19.622;2023-08-30T14:18:55;24.30;59.30
78297;DHT22;67555;47.660;19.622;2023-08-30T14:21:41;24.30;59.00
78297;DHT22;67555;47.660;19.622;2023-08-30T14:24:07;24.00;59.50
78297;DHT22;67555;47.660;19.622;2023-08-30T14:26:33;24.00;59.70
78297;DHT22;67555;47.660;19.622;2023-08-30T14:28:59;23.90;60.20
78297;DHT22;67555;47.660;19.622;2023-08-30T14:31:25;23.80;60.50
78297;DHT22;67555;47.660;19.622;2023-08-30T14:33:56;23.80;60.00
78297;DHT22;67555;47.660;19.622;2023-08-30T14:36:25;23.80;60.50
78297;DHT22;67555;47.660;19.622;2023-08-30T14:38:51;23.80;60.00
78297;DHT22;67555;47.660;19.622;2023-08-30T14:41:18;23.60;60.20
78297;DHT22;67555;47.660;19.622;2023-08-30T14:43:44;23.50;60.70
78297;DHT22;67555;47.660;19.622;2023-08-30T14:46:10;23.60;61.00
78297;DHT22;67555;47.660;19.622;2023-08-30T14:48:36;23.60;60.70
78297;DHT22;67555;47.660;19.622;2023-08-30T14:51:05;23.60;60.70
78297;DHT22;67555;47.660;19.622;2023-08-30T14:53:31;23.60;60.40
78297;DHT22;67555;47.660;19.622;2023-08-30T14:55:57;23.50;60.50
78297;DHT22;67555;47.660;19.622;2023-08-30T14:58:23;23.30;60.90
78297;DHT22;67555;47.660;19.622;2023-08-30T15:00:50;23.10;61.10
78297;DHT22;67555;47.660;19.622;2023-08-30T15:03:16;23.00;61.40
78297;DHT22;67555;47.660;19.622;2023-08-30T15:05:42;22.80;61.70
78297;DHT22;67555;47.660;19.622;2023-08-30T15:08:08;22.80;62.00
78297;DHT22;67555;47.660;19.622;2023-08-30T15:10:35;22.90;61.80
78297;DHT22;67555;47.660;19.622;2023-08-30T15:13:01;22.90;61.10
78297;DHT22;67555;47.660;19.622;2023-08-30T15:15:28;22.70;61.40
78297;DHT22;67555;47.660;19.622;2023-08-30T15:17:56;22.60;61.90
78297;DHT22;67555;47.660;19.622;2023-08-30T15:20:22;22.60;62.20
78297;DHT22;67555;47.660;19.622;2023-08-30T15:22:48;22.60;62.30
78297;DHT22;67555;47.660;19.622;2023-08-30T15:25:14;22.60;62.20
78297;DHT22;67555;47.660;19.622;2023-08-30T15:27:40;22.70;62.00
78297;DHT22;67555;47.660;19.622;2023-08-30T15:30:06;22.80;61.70